Time;durP1;ratioP1;P1;durP2;ratioP2;P2;SDS_P1;SDS_P2;PMS_P1;PMS_P2;Temp;Humidity;BMP_temperature;BMP_pressure;BME280_temperature;BME280_humidity;BME280_pressure;Samples;Min_cycle;Max_cycle;Signal;HPM_P1;HPM_P2
2022/01/25 00:28:26;;;;;;;40.38;19.58;;;4.10;99.90;;;;;;4809865;29;20043;-83
2022/01/25 00:33:26;;;;;;;38.22;17.77;;;4.10;99.90;;;;;;4808761;29;20169;-84
2022/01/25 00:35:51;;;;;;;36.38;18.75;;;4.10;99.90;;;;;;4804787;29;20054;-84
2022/01/25 00:38:17;;;;;;;34.75;15.88;;;4.10;99.90;;;;;;4803648;29;20138;-83
2022/01/25 00:40:43;;;;;;;41.75;18.95;;;4.10;99.90;;;;;;4804326;29;20060;-84
2022/01/25 00:43:08;;;;;;;35.13;18.15;;;4.10;99.90;;;;;;4803416;29;20174;-84
2022/01/25 00:45:34;;;;;;;43.53;20.70;;;4.10;99.90;;;;;;4803738;29;20130;-84
2022/01/25 00:48:03;;;;;;;42.22;20.90;;;4.10;99.90;;;;;;4788401;29;20134;-83
2022/01/25 00:50:36;;;;;;;39.33;18.55;;;4.10;99.90;;;;;;4805521;29;20416;-83
2022/01/25 00:55:28;;;;;;;36.45;18.58;;;4.10;99.90;;;;;;4805852;29;20133;-83
2022/01/25 00:57:54;;;;;;;40.08;18.58;;;4.10;99.90;;;;;;4792602;29;20035;-84
2022/01/25 01:00:20;;;;;;;36.10;16.67;;;4.10;99.90;;;;;;4789798;29;20107;-83
2022/01/25 01:02:45;;;;;;;39.35;19.52;;;4.10;99.90;;;;;;4788697;29;20537;-83
2022/01/25 01:05:11;;;;;;;41.45;19.02;;;4.10;99.90;;;;;;4805720;29;20043;-84
2022/01/25 01:07:37;;;;;;;38.13;18.35;;;4.10;99.90;;;;;;4832989;29;20066;-83
2022/01/25 01:10:04;;;;;;;37.63;17.48;;;4.10;99.90;;;;;;4805116;29;20050;-84
2022/01/25 01:15:10;;;;;;;43.65;20.45;;;4.10;99.90;;;;;;4803875;29;20055;-83
2022/01/25 01:31:16;;;;;;;38.65;20.02;;;4.00;99.90;;;;;;4805508;29;20074;-83
2022/01/25 01:44:21;;;;;;;40.00;19.55;;;4.00;99.90;;;;;;4797188;29;20055;-83
2022/01/25 01:47:02;;;;;;;39.53;18.83;;;4.00;99.90;;;;;;4808408;29;20046;-83
2022/01/25 01:49:29;;;;;;;36.80;17.90;;;4.00;99.90;;;;;;4804065;29;20391;-83
2022/01/25 01:51:55;;;;;;;38.30;17.17;;;4.00;99.90;;;;;;4790049;29;20074;-84
2022/01/25 01:54:21;;;;;;;34.55;18.40;;;4.00;99.90;;;;;;4786749;29;20076;-83
2022/01/25 01:56:47;;;;;;;31.23;15.38;;;4.00;99.90;;;;;;4806280;29;20109;-84
2022/01/25 01:59:16;;;;;;;38.35;18.90;;;4.00;99.90;;;;;;4798896;29;20029;-83
2022/01/25 02:01:44;;;;;;;37.60;17.98;;;4.10;99.90;;;;;;4806128;29;20070;-83
2022/01/25 02:04:12;;;;;;;34.28;17.23;;;4.00;99.90;;;;;;4814280;29;20050;-83
2022/01/25 02:06:38;;;;;;;38.63;18.55;;;4.00;99.90;;;;;;4806783;29;20461;-83
2022/01/25 02:09:07;;;;;;;38.45;19.25;;;4.00;99.90;;;;;;4809764;29;20038;-83
2022/01/25 02:11:33;;;;;;;38.08;19.85;;;4.00;99.90;;;;;;4808140;29;20409;-83
2022/01/25 02:14:04;;;;;;;41.67;20.55;;;4.00;99.90;;;;;;4827986;29;20042;-83
2022/01/25 02:24:24;;;;;;;35.97;17.75;;;4.00;99.90;;;;;;4802851;29;20516;-83
2022/01/25 02:26:55;;;;;;;37.00;18.17;;;4.00;99.90;;;;;;4791924;29;20125;-84
2022/01/25 02:29:20;;;;;;;33.42;17.10;;;4.00;99.90;;;;;;4793233;29;20068;-83
2022/01/25 02:31:46;;;;;;;41.90;18.88;;;4.00;99.90;;;;;;4809422;29;20034;-83
2022/01/25 02:34:12;;;;;;;34.55;17.60;;;4.00;99.90;;;;;;4808352;29;20046;-83
2022/01/25 02:36:38;;;;;;;39.50;18.20;;;4.00;99.90;;;;;;4806587;29;20106;-83
2022/01/25 02:39:04;;;;;;;36.95;18.30;;;4.00;99.90;;;;;;4809252;29;20046;-83
2022/01/25 02:41:29;;;;;;;38.97;19.73;;;4.00;99.90;;;;;;4793656;29;20454;-83
2022/01/25 02:43:56;;;;;;;34.03;17.27;;;4.00;99.90;;;;;;4806846;29;20077;-83
2022/01/25 02:49:08;;;;;;;42.72;21.23;;;4.00;99.90;;;;;;4800033;29;20049;-83
2022/01/25 02:51:44;;;;;;;41.42;19.67;;;4.00;99.90;;;;;;4823046;29;20046;-83
2022/01/25 02:54:11;;;;;;;39.08;18.45;;;4.00;99.90;;;;;;4805682;29;20584;-83
2022/01/25 02:56:38;;;;;;;39.22;19.35;;;4.00;99.90;;;;;;4809925;29;20077;-83
2022/01/25 02:59:06;;;;;;;38.10;18.23;;;3.90;99.90;;;;;;4805755;29;20486;-83
2022/01/25 03:01:32;;;;;;;37.47;18.40;;;4.00;99.90;;;;;;4808236;29;20042;-83
2022/01/25 03:03:58;;;;;;;37.72;17.50;;;3.90;99.90;;;;;;4810134;29;20042;-83
2022/01/25 03:06:25;;;;;;;36.03;16.70;;;3.90;99.90;;;;;;4806865;29;20049;-83
2022/01/25 03:08:51;;;;;;;34.58;17.90;;;3.90;99.90;;;;;;4803555;29;20046;-83
2022/01/25 03:11:19;;;;;;;36.90;16.10;;;3.90;99.90;;;;;;4811092;29;20049;-83
2022/01/25 03:13:54;;;;;;;37.65;18.25;;;3.90;99.90;;;;;;4807137;29;20069;-83
2022/01/25 03:16:35;;;;;;;39.50;19.67;;;3.90;99.90;;;;;;4805817;29;20077;-83
2022/01/25 03:19:26;;;;;;;39.50;19.77;;;3.90;99.90;;;;;;4808177;29;20046;-83
2022/01/25 03:21:49;;;;;;;32.67;16.85;;;3.90;99.90;;;;;;4803380;29;20086;-83
2022/01/25 03:24:15;;;;;;;35.90;17.08;;;3.90;99.90;;;;;;4790290;29;20522;-83
2022/01/25 03:26:40;;;;;;;35.67;17.75;;;3.90;99.90;;;;;;4805678;29;20509;-83
2022/01/25 03:29:06;;;;;;;36.88;17.70;;;3.90;99.90;;;;;;4810060;29;20041;-83
2022/01/25 03:31:32;;;;;;;35.10;16.98;;;3.80;99.90;;;;;;4806952;29;21074;-83
2022/01/25 03:33:58;;;;;;;37.50;18.20;;;3.90;99.90;;;;;;4807299;29;20073;-83
2022/01/25 03:36:24;;;;;;;36.65;18.45;;;3.90;99.90;;;;;;4816424;29;20060;-83
2022/01/25 03:38:50;;;;;;;40.97;19.42;;;3.80;99.90;;;;;;4810856;29;20098;-83
2022/01/25 03:41:16;;;;;;;39.85;18.38;;;3.80;99.90;;;;;;4794253;29;20038;-84
2022/01/25 03:43:44;;;;;;;35.55;18.00;;;3.80;99.90;;;;;;4809247;29;20043;-83
2022/01/25 03:46:17;;;;;;;38.55;17.45;;;3.80;99.90;;;;;;4814007;29;20054;-83
2022/01/25 03:51:27;;;;;;;38.00;19.20;;;3.80;99.90;;;;;;4810402;29;20366;-83
2022/01/25 03:53:53;;;;;;;40.15;19.23;;;3.80;99.90;;;;;;4807185;29;20063;-83
2022/01/25 03:56:20;;;;;;;38.17;18.33;;;3.80;99.90;;;;;;4811295;29;20089;-83
2022/01/25 03:58:46;;;;;;;39.10;18.95;;;3.80;99.90;;;;;;4812491;29;21597;-84
2022/01/25 04:01:12;;;;;;;41.28;16.60;;;3.80;99.90;;;;;;4807316;29;20077;-83
2022/01/25 04:03:43;;;;;;;31.98;16.15;;;3.80;99.90;;;;;;4808870;29;20046;-83
2022/01/25 04:06:10;;;;;;;36.83;17.20;;;3.80;99.90;;;;;;4811024;29;20077;-83
2022/01/25 04:08:36;;;;;;;32.90;16.83;;;3.80;99.90;;;;;;4809752;29;20046;-83
2022/01/25 04:11:03;;;;;;;44.88;20.75;;;3.80;99.90;;;;;;4815201;29;20045;-83
2022/01/25 04:13:28;;;;;;;43.05;19.60;;;3.80;99.90;;;;;;4817968;29;20449;-83
2022/01/25 04:15:57;;;;;;;42.35;20.05;;;3.80;99.90;;;;;;4809033;29;20046;-83
2022/01/25 04:18:37;;;;;;;37.67;19.27;;;3.80;99.90;;;;;;4793813;29;20057;-84
2022/01/25 04:21:23;;;;;;;40.53;20.30;;;3.80;99.90;;;;;;4804340;29;20055;-84
2022/01/25 04:26:33;;;;;;;41.13;17.10;;;3.80;99.90;;;;;;4806819;29;20420;-83
2022/01/25 04:28:58;;;;;;;43.08;18.67;;;3.80;99.90;;;;;;4808098;29;20236;-83
2022/01/25 04:31:24;;;;;;;36.80;19.08;;;3.80;99.90;;;;;;4795477;29;20062;-83
2022/01/25 04:34:09;;;;;;;39.65;19.58;;;3.70;99.90;;;;;;4810642;29;20579;-84
2022/01/25 04:50:11;;;;;;;38.58;18.50;;;3.70;99.90;;;;;;4837162;29;20043;-83
2022/01/25 04:52:50;;;;;;;42.03;21.17;;;3.70;99.90;;;;;;4812168;29;20039;-84
2022/01/25 04:55:24;;;;;;;45.58;20.35;;;3.60;99.90;;;;;;4804664;29;20479;-83
2022/01/25 04:58:00;;;;;;;43.45;20.45;;;3.60;99.90;;;;;;4810071;29;20058;-83
2022/01/25 05:00:26;;;;;;;43.35;20.67;;;3.60;99.90;;;;;;4807643;29;20058;-83
2022/01/25 05:03:08;;;;;;;42.88;20.70;;;3.50;99.90;;;;;;4807804;29;20090;-83
2022/01/25 05:05:40;;;;;;;38.42;18.23;;;3.60;99.90;;;;;;4832734;29;20042;-83
2022/01/25 05:08:18;;;;;;;40.00;19.77;;;3.60;99.90;;;;;;4809560;29;20095;-83
2022/01/25 05:11:30;;;;;;;44.28;20.02;;;3.60;99.90;;;;;;4809193;29;20420;-84
2022/01/25 05:16:30;;;;;;;40.35;19.77;;;3.60;99.90;;;;;;4806226;29;20062;-83
2022/01/25 05:19:19;;;;;;;42.78;19.92;;;3.60;99.90;;;;;;4796727;29;21899;-83
2022/01/25 05:24:35;;;;;;;42.47;19.58;;;3.60;99.90;;;;;;4805531;29;20062;-83
2022/01/25 05:27:02;;;;;;;46.33;21.23;;;3.60;99.90;;;;;;4793442;29;20046;-83
2022/01/25 05:29:27;;;;;;;39.50;19.38;;;3.50;99.90;;;;;;4792567;29;20125;-83
2022/01/25 05:31:53;;;;;;;40.97;19.50;;;3.50;99.90;;;;;;4791986;29;20121;-84
2022/01/25 05:34:18;;;;;;;41.05;20.75;;;3.50;99.90;;;;;;4807207;29;20095;-83
2022/01/25 05:36:44;;;;;;;37.92;18.92;;;3.50;99.90;;;;;;4814794;29;20049;-84
2022/01/25 05:39:32;;;;;;;47.80;20.35;;;3.50;99.90;;;;;;4810896;29;20034;-83
2022/01/25 05:42:14;;;;;;;41.92;19.80;;;3.50;99.90;;;;;;4792327;29;20180;-83
2022/01/25 05:44:56;;;;;;;44.80;21.02;;;3.50;99.90;;;;;;4830073;29;20050;-83
2022/01/25 05:47:27;;;;;;;39.10;18.03;;;3.50;99.90;;;;;;4826557;29;20133;-83
2022/01/25 05:49:53;;;;;;;41.53;19.83;;;3.50;99.90;;;;;;4809067;29;20214;-83
2022/01/25 05:52:19;;;;;;;39.63;19.45;;;3.50;99.90;;;;;;4823480;29;20496;-83
2022/01/25 05:54:45;;;;;;;40.88;19.15;;;3.50;99.90;;;;;;4804962;29;20137;-83
2022/01/25 05:57:11;;;;;;;43.42;18.92;;;3.50;99.90;;;;;;4805909;29;20069;-84
2022/01/25 05:59:37;;;;;;;41.15;18.55;;;3.50;99.90;;;;;;4804013;29;20497;-83
2022/01/25 06:02:04;;;;;;;42.58;20.45;;;3.40;99.90;;;;;;4790204;29;20408;-83
2022/01/25 06:04:30;;;;;;;43.00;19.23;;;3.40;99.90;;;;;;4832148;29;20402;-83
2022/01/25 06:06:56;;;;;;;47.20;21.25;;;3.40;99.90;;;;;;4805784;29;20047;-83
2022/01/25 06:09:24;;;;;;;43.83;19.52;;;3.50;99.90;;;;;;4802437;29;20125;-83
2022/01/25 06:11:51;;;;;;;47.78;21.10;;;3.40;99.90;;;;;;4803189;29;20058;-83
2022/01/25 06:14:17;;;;;;;44.67;19.80;;;3.40;99.90;;;;;;4821235;29;20058;-83
2022/01/25 06:16:42;;;;;;;46.22;20.27;;;3.40;99.90;;;;;;4803328;29;20186;-83
2022/01/25 06:19:08;;;;;;;40.65;19.75;;;3.40;99.90;;;;;;4802979;29;20049;-82
2022/01/25 06:21:33;;;;;;;49.28;21.27;;;3.40;99.90;;;;;;4802756;29;20047;-83
2022/01/25 06:23:59;;;;;;;37.45;18.40;;;3.40;99.90;;;;;;4803318;29;20054;-83
2022/01/25 06:26:25;;;;;;;43.63;20.05;;;3.40;99.90;;;;;;4803936;29;20049;-83
2022/01/25 06:28:51;;;;;;;38.03;18.75;;;3.40;99.90;;;;;;4803842;29;20042;-83
2022/01/25 06:31:18;;;;;;;41.67;19.45;;;3.40;99.90;;;;;;4786605;29;20505;-83
2022/01/25 06:33:44;;;;;;;38.80;17.50;;;3.40;99.90;;;;;;4805701;29;20104;-83
2022/01/25 06:36:11;;;;;;;41.15;18.75;;;3.40;99.90;;;;;;4785812;29;20119;-83
2022/01/25 06:38:36;;;;;;;40.88;18.73;;;3.40;99.90;;;;;;4801328;29;20103;-83
2022/01/25 06:41:03;;;;;;;39.95;18.58;;;3.40;99.90;;;;;;4800649;29;20494;-84
2022/01/25 06:43:28;;;;;;;42.85;19.60;;;3.40;99.90;;;;;;4799716;29;20042;-83
2022/01/25 06:45:59;;;;;;;40.95;19.02;;;3.40;99.90;;;;;;4802774;29;20045;-83
2022/01/25 06:48:24;;;;;;;38.88;18.65;;;3.40;99.90;;;;;;4802224;29;20078;-83
2022/01/25 06:50:50;;;;;;;47.10;20.77;;;3.40;99.90;;;;;;4801505;29;20567;-83
2022/01/25 06:53:15;;;;;;;46.40;21.33;;;3.40;99.90;;;;;;4785842;29;20022;-83
2022/01/25 06:55:41;;;;;;;49.92;21.80;;;3.40;99.90;;;;;;4783809;29;20474;-83
2022/01/25 06:58:08;;;;;;;44.85;20.88;;;3.40;99.90;;;;;;4800123;29;20057;-83
2022/01/25 07:00:35;;;;;;;40.42;19.42;;;3.40;99.90;;;;;;4800823;29;20152;-83
2022/01/25 07:03:01;;;;;;;44.75;21.48;;;3.40;99.90;;;;;;4801424;29;20058;-83
2022/01/25 07:05:27;;;;;;;44.22;21.00;;;3.40;99.90;;;;;;4800543;29;20053;-83
2022/01/25 07:07:53;;;;;;;45.70;21.58;;;3.40;99.90;;;;;;4801051;29;20065;-83
2022/01/25 07:10:20;;;;;;;43.50;19.50;;;3.40;99.90;;;;;;4799634;29;20567;-86
2022/01/25 07:12:46;;;;;;;42.92;20.30;;;3.40;99.90;;;;;;4799278;29;20027;-82
2022/01/25 07:15:13;;;;;;;43.63;20.35;;;3.40;99.90;;;;;;4801094;29;20050;-82
2022/01/25 07:17:39;;;;;;;46.13;21.27;;;3.40;99.90;;;;;;4800288;29;20567;-81
2022/01/25 07:20:06;;;;;;;45.13;21.48;;;3.40;99.90;;;;;;4798433;29;20046;-82
2022/01/25 07:22:37;;;;;;;46.95;20.50;;;3.40;99.90;;;;;;4801441;29;20057;-82
2022/01/25 07:25:05;;;;;;;45.28;21.40;;;3.40;99.90;;;;;;4803442;29;20039;-81
2022/01/25 07:27:31;;;;;;;54.63;21.65;;;3.40;99.90;;;;;;4788709;29;20129;-81
2022/01/25 07:29:56;;;;;;;46.55;19.27;;;3.30;99.90;;;;;;4801418;29;20121;-81
2022/01/25 07:32:22;;;;;;;44.30;17.95;;;3.30;99.90;;;;;;4786189;29;20104;-81
2022/01/25 07:34:48;;;;;;;40.72;18.48;;;3.40;99.90;;;;;;4800003;29;20046;-81
2022/01/25 07:37:13;;;;;;;38.28;17.30;;;3.40;99.90;;;;;;4800692;29;20046;-82
2022/01/25 07:39:40;;;;;;;41.17;19.05;;;3.40;99.90;;;;;;4800244;29;20054;-82
2022/01/25 07:42:06;;;;;;;44.90;19.33;;;3.40;99.90;;;;;;4800947;29;20120;-82
2022/01/25 07:44:36;;;;;;;40.03;18.38;;;3.40;99.90;;;;;;4801247;29;20076;-82
2022/01/25 07:47:02;;;;;;;42.90;20.00;;;3.40;99.90;;;;;;4828696;29;20049;-81
2022/01/25 07:49:29;;;;;;;48.17;20.52;;;3.40;99.90;;;;;;4800353;29;20043;-81
2022/01/25 07:51:54;;;;;;;48.83;20.95;;;3.40;99.90;;;;;;4800243;29;20058;-81
2022/01/25 07:54:20;;;;;;;47.38;20.90;;;3.40;99.90;;;;;;4797864;29;20051;-81
2022/01/25 07:56:46;;;;;;;43.55;19.42;;;3.40;99.90;;;;;;4801461;29;20113;-81
2022/01/25 07:59:15;;;;;;;46.25;21.35;;;3.40;99.90;;;;;;4819086;29;20054;-82
2022/01/25 08:01:42;;;;;;;46.80;21.85;;;3.40;99.90;;;;;;4804763;29;20053;-81
2022/01/25 08:04:09;;;;;;;46.42;19.58;;;3.40;99.90;;;;;;4802002;29;20053;-81
2022/01/25 08:06:36;;;;;;;47.63;20.98;;;3.40;99.90;;;;;;4803559;29;20190;-81
2022/01/25 08:09:07;;;;;;;42.95;20.20;;;3.40;99.90;;;;;;4802307;29;20038;-81
2022/01/25 08:11:33;;;;;;;43.00;20.70;;;3.40;99.90;;;;;;4802847;29;20050;-81
2022/01/25 08:14:16;;;;;;;36.08;18.02;;;3.40;99.90;;;;;;4805067;29;20046;-81
2022/01/25 08:16:50;;;;;;;43.90;19.83;;;3.40;99.90;;;;;;4803176;29;20085;-81
2022/01/25 08:19:17;;;;;;;39.30;17.48;;;3.40;99.90;;;;;;4817323;29;20403;-81
2022/01/25 08:21:43;;;;;;;40.67;19.00;;;3.40;99.90;;;;;;4801432;29;20458;-82
2022/01/25 08:24:11;;;;;;;44.40;18.55;;;3.40;99.90;;;;;;4787914;29;20067;-81
2022/01/25 08:26:37;;;;;;;38.92;19.08;;;3.40;99.90;;;;;;4807062;29;20502;-81
2022/01/25 08:29:04;;;;;;;41.72;18.45;;;3.40;99.90;;;;;;4806461;29;20080;-82
2022/01/25 08:31:30;;;;;;;39.83;18.50;;;3.40;99.90;;;;;;4809731;29;20042;-82
2022/01/25 08:33:56;;;;;;;42.67;18.70;;;3.40;99.90;;;;;;4809236;29;20058;-82
2022/01/25 08:36:22;;;;;;;43.90;17.83;;;3.50;99.90;;;;;;4807367;29;20042;-82
2022/01/25 08:38:48;;;;;;;45.55;19.75;;;3.50;99.90;;;;;;4807471;29;21053;-83
2022/01/25 08:41:15;;;;;;;41.90;18.90;;;3.50;99.90;;;;;;4810937;29;20463;-82
2022/01/25 08:43:41;;;;;;;39.55;18.45;;;3.50;99.90;;;;;;4807976;29;20052;-81
2022/01/25 08:46:07;;;;;;;42.45;18.83;;;3.50;99.90;;;;;;4823828;29;20042;-82
2022/01/25 08:48:32;;;;;;;43.05;19.08;;;3.50;99.90;;;;;;4807293;29;20655;-82
2022/01/25 08:50:58;;;;;;;43.67;20.02;;;3.50;99.90;;;;;;4809244;29;20050;-82
2022/01/25 08:53:25;;;;;;;37.90;18.70;;;3.50;99.90;;;;;;4840548;29;20078;-82
2022/01/25 08:55:51;;;;;;;43.35;20.67;;;3.50;99.90;;;;;;4792281;29;20138;-82
2022/01/25 08:58:16;;;;;;;46.20;20.88;;;3.50;99.90;;;;;;4822199;29;20062;-82
2022/01/25 09:00:42;;;;;;;41.80;20.33;;;3.50;99.90;;;;;;4806691;29;20069;-82
2022/01/25 09:03:08;;;;;;;46.88;21.05;;;3.50;99.90;;;;;;4807215;29;20046;-82
2022/01/25 09:05:34;;;;;;;44.53;20.35;;;3.50;99.90;;;;;;4807880;29;20465;-82
2022/01/25 09:08:01;;;;;;;42.75;19.83;;;3.50;99.90;;;;;;4791476;29;20037;-82
2022/01/25 09:10:27;;;;;;;47.25;19.77;;;3.50;99.90;;;;;;4807558;29;20050;-82
2022/01/25 09:12:54;;;;;;;43.85;20.60;;;3.60;99.90;;;;;;4806121;29;20054;-82
2022/01/25 09:15:23;;;;;;;44.00;19.30;;;3.50;99.90;;;;;;4806847;29;20055;-82
2022/01/25 09:17:49;;;;;;;38.88;16.63;;;3.60;99.90;;;;;;4806948;29;20485;-82
2022/01/25 09:20:15;;;;;;;47.83;20.30;;;3.60;99.90;;;;;;4805725;29;21153;-82
2022/01/25 09:22:40;;;;;;;42.63;20.02;;;3.60;99.90;;;;;;4792850;29;20081;-82
2022/01/25 09:25:06;;;;;;;47.08;20.38;;;3.60;99.90;;;;;;4805566;29;20034;-82
2022/01/25 09:27:32;;;;;;;46.65;19.80;;;3.60;99.90;;;;;;4790478;29;20389;-82
2022/01/25 09:29:58;;;;;;;40.42;17.75;;;3.70;99.90;;;;;;4808174;29;20042;-82
2022/01/25 09:32:23;;;;;;;44.33;19.65;;;3.70;99.90;;;;;;4806720;29;20051;-82
2022/01/25 09:34:49;;;;;;;46.13;19.70;;;3.70;99.90;;;;;;4808812;29;20544;-82
2022/01/25 09:37:15;;;;;;;41.10;18.42;;;3.70;99.90;;;;;;4808554;29;20570;-81
2022/01/25 09:39:42;;;;;;;43.67;20.45;;;3.70;99.90;;;;;;4804697;29;20073;-82
2022/01/25 09:42:08;;;;;;;44.10;19.52;;;3.70;99.90;;;;;;4823719;29;20066;-82
2022/01/25 09:44:37;;;;;;;42.15;19.58;;;3.70;99.90;;;;;;4805170;29;20050;-82
2022/01/25 09:47:03;;;;;;;45.70;17.88;;;3.70;99.90;;;;;;4807713;29;20070;-82
2022/01/25 09:49:30;;;;;;;47.47;19.98;;;3.70;99.90;;;;;;4805259;29;20069;-81
2022/01/25 09:51:57;;;;;;;40.88;18.98;;;3.80;99.90;;;;;;4805085;29;20046;-81
2022/01/25 09:54:23;;;;;;;46.08;19.98;;;3.80;99.90;;;;;;4801830;29;20452;-82
2022/01/25 09:56:57;;;;;;;41.03;19.02;;;3.80;99.90;;;;;;4811575;29;20058;-82
2022/01/25 09:59:26;;;;;;;39.13;17.60;;;3.70;99.90;;;;;;4789426;29;20138;-82
2022/01/25 10:01:52;;;;;;;41.53;20.13;;;3.80;99.90;;;;;;4809443;29;20429;-82
2022/01/25 10:04:41;;;;;;;43.58;18.58;;;3.80;99.90;;;;;;4796580;29;20113;-82
2022/01/25 10:07:10;;;;;;;42.25;18.38;;;3.80;99.90;;;;;;4808051;29;20049;-82
2022/01/25 10:09:41;;;;;;;42.70;18.58;;;3.80;99.90;;;;;;4819335;29;20327;-81
2022/01/25 10:12:20;;;;;;;44.03;18.98;;;3.80;99.90;;;;;;4807771;29;20048;-82
2022/01/25 10:14:55;;;;;;;42.20;18.73;;;3.90;99.90;;;;;;4804885;29;20042;-82
2022/01/25 10:17:33;;;;;;;39.50;18.70;;;3.90;99.90;;;;;;4804246;29;20062;-82
2022/01/25 10:19:59;;;;;;;41.85;18.42;;;3.90;99.90;;;;;;4815966;29;20114;-82
2022/01/25 10:22:25;;;;;;;42.38;18.80;;;3.90;99.90;;;;;;4802833;29;20046;-81
2022/01/25 10:24:50;;;;;;;42.55;18.23;;;3.90;99.90;;;;;;4804020;29;20046;-81
2022/01/25 10:27:16;;;;;;;43.08;17.67;;;3.90;99.90;;;;;;4807339;29;20046;-82
2022/01/25 10:29:41;;;;;;;45.60;21.05;;;3.90;99.90;;;;;;4807304;29;20477;-82
2022/01/25 10:32:09;;;;;;;35.33;17.33;;;3.90;99.90;;;;;;4805965;29;20049;-82
2022/01/25 10:34:44;;;;;;;44.13;19.58;;;3.90;99.90;;;;;;4802941;29;20617;-82
2022/01/25 10:37:15;;;;;;;37.60;16.42;;;3.90;99.90;;;;;;4786476;29;20062;-82
2022/01/25 10:39:44;;;;;;;41.17;18.17;;;3.90;99.90;;;;;;4804720;29;20107;-82
2022/01/25 10:42:11;;;;;;;45.28;19.15;;;3.90;99.90;;;;;;4806398;29;20388;-82
2022/01/25 10:44:56;;;;;;;38.83;17.85;;;3.90;99.90;;;;;;4787664;29;20413;-81
2022/01/25 11:15:20;;;;;;;36.75;16.38;;;4.00;99.90;;;;;;4835417;29;20042;-81
2022/01/25 11:17:46;;;;;;;41.42;19.35;;;4.00;99.90;;;;;;4806201;29;20050;-81
2022/01/25 11:20:12;;;;;;;39.80;16.98;;;4.00;99.90;;;;;;4808367;29;20038;-81
2022/01/25 11:22:38;;;;;;;39.97;18.05;;;4.00;99.90;;;;;;4821761;29;20046;-82
2022/01/25 11:25:05;;;;;;;41.58;17.95;;;4.00;99.90;;;;;;4823702;29;20046;-81
2022/01/25 11:27:32;;;;;;;45.28;19.65;;;4.00;99.90;;;;;;4820038;29;20045;-81
2022/01/25 11:30:03;;;;;;;41.60;18.35;;;4.00;99.90;;;;;;4822099;29;20089;-82
2022/01/25 11:32:33;;;;;;;46.53;19.52;;;4.00;99.90;;;;;;4819822;29;20504;-82
2022/01/25 11:35:00;;;;;;;44.63;18.98;;;4.00;99.90;;;;;;4818585;29;20053;-81
2022/01/25 11:37:38;;;;;;;47.08;20.67;;;4.00;99.90;;;;;;4824113;29;20357;-81
2022/01/25 11:40:25;;;;;;;45.95;19.38;;;4.00;99.90;;;;;;4822769;29;20073;-82
2022/01/25 11:42:54;;;;;;;38.80;17.63;;;4.00;99.90;;;;;;4814791;29;20711;-82
2022/01/25 11:45:22;;;;;;;48.58;20.52;;;4.10;99.90;;;;;;4822010;29;20594;-81
2022/01/25 11:47:50;;;;;;;42.95;19.75;;;4.10;99.90;;;;;;4804721;29;20602;-81
2022/01/25 11:50:17;;;;;;;42.80;19.15;;;4.10;99.90;;;;;;4826774;29;20181;-81
2022/01/25 11:52:51;;;;;;;45.80;19.55;;;4.10;99.90;;;;;;4806711;29;20444;-81
2022/01/25 11:55:38;;;;;;;45.25;19.55;;;4.10;99.90;;;;;;4820597;29;20052;-82
2022/01/25 11:58:14;;;;;;;42.05;18.23;;;4.10;99.90;;;;;;4816902;29;20045;-81
2022/01/25 12:00:45;;;;;;;41.22;17.38;;;4.10;99.90;;;;;;4819619;29;20042;-81
2022/01/25 12:03:28;;;;;;;39.35;18.10;;;4.10;99.90;;;;;;4807392;29;20401;-81
2022/01/25 12:06:08;;;;;;;41.60;18.65;;;4.10;99.90;;;;;;4822622;29;20482;-81
2022/01/25 12:11:39;;;;;;;43.33;18.30;;;4.10;99.90;;;;;;4824240;29;20140;-81
2022/01/25 12:14:36;;;;;;;42.15;18.92;;;4.10;99.90;;;;;;4823123;29;20092;-82
2022/01/25 12:17:02;;;;;;;38.95;17.48;;;4.10;99.90;;;;;;4815470;29;20466;-81
2022/01/25 12:19:30;;;;;;;41.38;17.60;;;4.10;99.90;;;;;;4824746;29;20038;-82
2022/01/25 12:22:25;;;;;;;38.83;16.88;;;4.10;99.90;;;;;;4823746;29;20054;-82
2022/01/25 12:27:45;;;;;;;39.60;16.60;;;4.10;99.90;;;;;;4821241;29;20130;-82
2022/01/25 13:15:14;;;;;;;39.53;15.48;;;4.30;99.90;;;;;;4855778;29;20061;-82
2022/01/25 13:17:37;;;;;;;39.85;16.48;;;4.20;99.90;;;;;;4843894;29;20193;-83
2022/01/25 13:20:04;;;;;;;35.10;15.98;;;4.20;99.90;;;;;;4841621;29;20132;-83
2022/01/25 13:22:35;;;;;;;42.92;17.70;;;4.20;99.90;;;;;;4840206;29;20041;-82
2022/01/25 13:27:45;;;;;;;35.33;16.33;;;4.20;99.90;;;;;;4842673;29;20560;-82
2022/01/25 13:32:57;;;;;;;37.78;15.82;;;4.20;99.90;;;;;;4841845;29;20065;-82
2022/01/25 13:35:33;;;;;;;39.75;16.08;;;4.20;99.90;;;;;;4842118;29;20068;-82
2022/01/25 13:38:05;;;;;;;43.35;17.08;;;4.20;99.90;;;;;;4841473;29;20045;-83
2022/01/25 13:40:50;;;;;;;40.00;17.30;;;4.20;99.90;;;;;;4839475;29;20140;-83
2022/01/25 13:46:11;;;;;;;43.83;17.10;;;4.20;99.90;;;;;;4840549;29;20121;-83
2022/01/25 13:48:37;;;;;;;38.15;16.52;;;4.10;99.90;;;;;;4839105;29;20045;-83
2022/01/25 13:51:09;;;;;;;41.03;16.73;;;4.10;99.90;;;;;;4842906;29;20045;-82
2022/01/25 13:53:36;;;;;;;37.15;16.48;;;4.10;99.90;;;;;;4836022;29;20153;-82
2022/01/25 13:56:05;;;;;;;44.25;17.15;;;4.10;99.90;;;;;;4839082;29;20037;-82
2022/01/25 13:58:37;;;;;;;40.33;16.38;;;4.10;99.90;;;;;;4836137;29;20045;-83
2022/01/25 14:01:05;;;;;;;39.85;18.00;;;4.10;99.90;;;;;;4825590;29;20077;-82
2022/01/25 14:03:37;;;;;;;42.47;17.15;;;4.10;99.90;;;;;;4840143;29;20096;-82
2022/01/25 14:06:25;;;;;;;39.65;17.70;;;4.10;99.90;;;;;;4837490;29;20421;-82
2022/01/25 14:08:53;;;;;;;46.15;16.77;;;4.10;99.90;;;;;;4837153;29;20541;-82
2022/01/25 14:24:55;;;;;;;41.95;16.25;;;4.10;99.90;;;;;;4837469;29;20053;-79
2022/01/25 14:27:27;;;;;;;40.50;17.65;;;4.10;99.90;;;;;;4838975;29;20046;-79
2022/01/25 14:29:53;;;;;;;43.30;18.50;;;4.10;99.90;;;;;;4839575;29;20093;-80
2022/01/25 14:32:33;;;;;;;36.65;16.25;;;4.10;99.90;;;;;;4839694;29;20140;-80
2022/01/25 14:35:04;;;;;;;35.50;14.35;;;4.10;99.90;;;;;;4841563;29;20523;-80
2022/01/25 14:37:30;;;;;;;39.88;15.88;;;4.00;99.90;;;;;;4841502;29;20524;-80
2022/01/25 14:40:10;;;;;;;38.10;15.43;;;4.10;99.90;;;;;;4840224;29;20041;-80
2022/01/25 14:42:38;;;;;;;38.05;16.00;;;4.10;99.90;;;;;;4856387;29;20092;-80
2022/01/25 14:45:06;;;;;;;36.40;16.33;;;4.10;99.90;;;;;;4821835;29;20492;-80
2022/01/25 14:47:39;;;;;;;37.10;15.65;;;4.00;99.90;;;;;;4821325;29;20041;-80
2022/01/25 14:50:07;;;;;;;34.42;15.40;;;4.10;99.90;;;;;;4836719;29;20041;-80
2022/01/25 14:52:34;;;;;;;46.42;18.67;;;4.10;99.90;;;;;;4820851;29;20053;-80
2022/01/25 14:55:00;;;;;;;43.80;17.60;;;4.10;99.90;;;;;;4838050;29;20116;-80
2022/01/25 14:57:37;;;;;;;37.45;16.25;;;4.00;99.90;;;;;;4838331;29;20057;-80
2022/01/25 15:00:05;;;;;;;44.28;17.98;;;4.00;99.90;;;;;;4855783;29;20049;-80
2022/01/25 15:02:30;;;;;;;44.25;18.63;;;4.00;99.90;;;;;;4824552;29;20045;-80
2022/01/25 15:04:58;;;;;;;43.47;17.65;;;4.00;99.90;;;;;;4839089;29;20069;-81
2022/01/25 15:07:26;;;;;;;38.20;15.88;;;4.00;99.90;;;;;;4821763;29;20052;-80
2022/01/25 15:10:02;;;;;;;41.47;17.80;;;4.00;99.90;;;;;;4838828;29;20044;-80
2022/01/25 15:12:41;;;;;;;39.30;15.95;;;3.90;99.90;;;;;;4837977;29;20060;-80
2022/01/25 15:15:12;;;;;;;35.53;15.80;;;4.00;99.90;;;;;;4852188;29;20061;-80
2022/01/25 15:17:38;;;;;;;39.72;16.13;;;3.90;99.90;;;;;;4820546;29;20100;-80
2022/01/25 15:20:06;;;;;;;38.72;16.50;;;3.90;99.90;;;;;;4826286;29;20089;-80
2022/01/25 15:22:32;;;;;;;37.83;16.85;;;3.90;99.90;;;;;;4835513;29;20062;-80
2022/01/25 15:24:59;;;;;;;38.10;16.50;;;3.90;99.90;;;;;;4836181;29;20060;-80
2022/01/25 15:27:28;;;;;;;34.20;14.10;;;3.90;99.90;;;;;;4838312;29;20082;-80
2022/01/25 15:29:55;;;;;;;40.75;15.20;;;3.90;99.90;;;;;;4834265;29;20038;-80
2022/01/25 15:32:20;;;;;;;39.17;16.10;;;3.90;99.90;;;;;;4837385;29;20352;-80
2022/01/25 15:34:46;;;;;;;39.60;16.83;;;3.90;99.90;;;;;;4840812;29;20042;-80
2022/01/25 15:37:13;;;;;;;38.38;16.08;;;3.90;99.90;;;;;;4839506;29;20045;-80
2022/01/25 15:39:39;;;;;;;39.03;16.05;;;3.80;99.90;;;;;;4829111;29;20420;-80
2022/01/25 15:42:05;;;;;;;38.53;15.50;;;3.90;99.90;;;;;;4843426;29;20483;-80
2022/01/25 15:44:38;;;;;;;33.42;13.93;;;3.80;99.90;;;;;;4845297;29;20162;-80
2022/01/25 15:47:07;;;;;;;42.00;16.17;;;3.90;99.90;;;;;;4841555;29;20060;-80
2022/01/25 15:49:32;;;;;;;39.97;16.98;;;3.90;99.90;;;;;;4842438;29;20041;-80
2022/01/25 15:51:58;;;;;;;45.58;16.52;;;3.90;99.90;;;;;;4842859;29;20049;-80
2022/01/25 15:54:25;;;;;;;45.72;17.27;;;3.90;99.90;;;;;;4838590;29;20049;-80
2022/01/25 15:56:51;;;;;;;37.47;15.57;;;3.90;99.90;;;;;;4841912;29;20567;-80
2022/01/25 15:59:19;;;;;;;37.63;15.65;;;3.90;99.90;;;;;;4828508;29;20064;-80